sensor_id;sensor_type;location;lat;lon;timestamp;noise_LAeq;noise_LA_min;noise_LA_max;noise_LA01;noise_LA95
72276;Laerm;61204;49.980;8.358;2023-12-28T00:01:40;55.56;49.32;62.69;;
72276;Laerm;61204;49.980;8.358;2023-12-28T00:04:06;53.41;48.38;59.12;;
72276;Laerm;61204;49.980;8.358;2023-12-28T00:06:31;51.50;46.13;57.67;;
72276;Laerm;61204;49.980;8.358;2023-12-28T00:08:57;52.30;47.95;59.43;;
72276;Laerm;61204;49.980;8.358;2023-12-28T00:11:22;53.32;47.74;60.90;;
72276;Laerm;61204;49.980;8.358;2023-12-28T00:13:48;55.44;49.48;62.79;;
72276;Laerm;61204;49.980;8.358;2023-12-28T00:16:14;54.04;47.69;63.86;;
72276;Laerm;61204;49.980;8.358;2023-12-28T00:18:39;55.96;49.72;65.88;;
72276;Laerm;61204;49.980;8.358;2023-12-28T00:21:10;53.14;47.70;58.18;;
72276;Laerm;61204;49.980;8.358;2023-12-28T00:23:36;53.92;44.99;61.82;;
72276;Laerm;61204;49.980;8.358;2023-12-28T00:26:01;52.68;42.74;61.50;;
72276;Laerm;61204;49.980;8.358;2023-12-28T00:28:27;52.93;45.84;60.27;;
72276;Laerm;61204;49.980;8.358;2023-12-28T00:30:53;53.07;43.46;67.08;;
72276;Laerm;61204;49.980;8.358;2023-12-28T00:33:18;53.02;42.91;62.62;;
72276;Laerm;61204;49.980;8.358;2023-12-28T00:35:44;52.22;44.95;59.29;;
72276;Laerm;61204;49.980;8.358;2023-12-28T00:38:09;54.70;46.02;65.46;;
72276;Laerm;61204;49.980;8.358;2023-12-28T00:40:38;50.37;45.35;56.38;;
72276;Laerm;61204;49.980;8.358;2023-12-28T00:43:03;51.35;46.02;57.25;;
72276;Laerm;61204;49.980;8.358;2023-12-28T00:45:31;52.59;47.31;62.38;;
72276;Laerm;61204;49.980;8.358;2023-12-28T00:47:58;52.60;46.26;63.01;;
72276;Laerm;61204;49.980;8.358;2023-12-28T00:50:24;55.05;47.82;69.80;;
72276;Laerm;61204;49.980;8.358;2023-12-28T00:52:52;52.98;46.96;62.24;;
72276;Laerm;61204;49.980;8.358;2023-12-28T00:55:18;53.56;47.10;62.73;;
72276;Laerm;61204;49.980;8.358;2023-12-28T00:57:43;50.80;43.84;57.32;;
72276;Laerm;61204;49.980;8.358;2023-12-28T01:00:12;51.42;44.61;57.99;;
72276;Laerm;61204;49.980;8.358;2023-12-28T01:02:37;50.53;44.75;58.19;;
72276;Laerm;61204;49.980;8.358;2023-12-28T01:05:05;52.72;45.77;59.84;;
72276;Laerm;61204;49.980;8.358;2023-12-28T01:07:31;51.16;44.85;60.14;;
72276;Laerm;61204;49.980;8.358;2023-12-28T01:09:57;50.29;42.42;60.62;;
72276;Laerm;61204;49.980;8.358;2023-12-28T01:12:25;51.62;42.37;59.53;;
72276;Laerm;61204;49.980;8.358;2023-12-28T01:14:53;52.82;43.81;60.86;;
72276;Laerm;61204;49.980;8.358;2023-12-28T01:17:21;51.68;44.44;60.96;;
72276;Laerm;61204;49.980;8.358;2023-12-28T01:19:46;52.93;46.98;61.61;;
72276;Laerm;61204;49.980;8.358;2023-12-28T01:22:12;50.04;44.31;56.49;;
72276;Laerm;61204;49.980;8.358;2023-12-28T01:24:38;51.63;44.52;60.81;;
72276;Laerm;61204;49.980;8.358;2023-12-28T01:27:08;48.77;43.12;57.76;;
72276;Laerm;61204;49.980;8.358;2023-12-28T01:29:33;51.66;42.37;58.83;;
72276;Laerm;61204;49.980;8.358;2023-12-28T01:31:59;50.56;43.72;57.99;;
72276;Laerm;61204;49.980;8.358;2023-12-28T01:34:25;50.97;45.72;58.41;;
72276;Laerm;61204;49.980;8.358;2023-12-28T01:36:53;52.07;43.38;82.38;;
72276;Laerm;61204;49.980;8.358;2023-12-28T01:39:18;53.12;47.01;60.46;;
72276;Laerm;61204;49.980;8.358;2023-12-28T01:41:47;50.14;44.84;58.07;;
72276;Laerm;61204;49.980;8.358;2023-12-28T01:44:15;48.98;43.00;55.20;;
72276;Laerm;61204;49.980;8.358;2023-12-28T01:46:42;50.53;42.20;59.55;;
72276;Laerm;61204;49.980;8.358;2023-12-28T01:49:07;50.93;43.85;59.80;;
72276;Laerm;61204;49.980;8.358;2023-12-28T01:51:34;51.72;43.04;60.41;;
72276;Laerm;61204;49.980;8.358;2023-12-28T01:54:02;51.40;45.29;61.26;;
72276;Laerm;61204;49.980;8.358;2023-12-28T01:56:28;50.39;44.91;57.72;;
72276;Laerm;61204;49.980;8.358;2023-12-28T01:58:54;50.65;41.37;60.94;;
72276;Laerm;61204;49.980;8.358;2023-12-28T02:01:20;50.18;41.79;60.07;;
72276;Laerm;61204;49.980;8.358;2023-12-28T02:03:48;53.28;47.32;60.11;;
72276;Laerm;61204;49.980;8.358;2023-12-28T02:06:14;53.53;48.85;59.82;;
72276;Laerm;61204;49.980;8.358;2023-12-28T02:08:44;50.28;43.44;59.36;;
72276;Laerm;61204;49.980;8.358;2023-12-28T02:11:10;51.42;44.36;58.66;;
72276;Laerm;61204;49.980;8.358;2023-12-28T02:13:36;53.88;45.29;61.06;;
72276;Laerm;61204;49.980;8.358;2023-12-28T02:16:14;54.10;47.98;62.00;;
72276;Laerm;61204;49.980;8.358;2023-12-28T02:18:52;51.63;45.73;59.33;;
72276;Laerm;61204;49.980;8.358;2023-12-28T02:21:21;50.96;44.44;62.58;;
72276;Laerm;61204;49.980;8.358;2023-12-28T02:23:49;53.10;47.37;59.51;;
72276;Laerm;61204;49.980;8.358;2023-12-28T02:26:18;51.40;44.92;58.80;;
72276;Laerm;61204;49.980;8.358;2023-12-28T02:28:45;55.27;46.61;63.59;;
72276;Laerm;61204;49.980;8.358;2023-12-28T02:31:32;54.84;47.97;71.33;;
72276;Laerm;61204;49.980;8.358;2023-12-28T02:34:15;53.96;46.97;62.82;;
72276;Laerm;61204;49.980;8.358;2023-12-28T02:36:47;53.59;46.84;63.72;;
72276;Laerm;61204;49.980;8.358;2023-12-28T02:39:16;52.10;43.53;61.38;;
72276;Laerm;61204;49.980;8.358;2023-12-28T02:41:44;53.99;44.91;61.86;;
72276;Laerm;61204;49.980;8.358;2023-12-28T02:44:13;52.78;45.14;62.38;;
72276;Laerm;61204;49.980;8.358;2023-12-28T02:46:38;55.39;49.55;62.53;;
72276;Laerm;61204;49.980;8.358;2023-12-28T02:49:04;55.10;48.78;61.80;;
72276;Laerm;61204;49.980;8.358;2023-12-28T02:51:29;52.55;46.44;59.17;;
72276;Laerm;61204;49.980;8.358;2023-12-28T02:53:55;52.40;46.32;62.99;;
72276;Laerm;61204;49.980;8.358;2023-12-28T02:56:23;50.79;45.15;59.64;;
72276;Laerm;61204;49.980;8.358;2023-12-28T02:58:50;50.49;43.72;58.43;;
72276;Laerm;61204;49.980;8.358;2023-12-28T03:01:18;49.96;43.74;58.66;;
72276;Laerm;61204;49.980;8.358;2023-12-28T03:03:44;48.98;43.99;60.38;;
72276;Laerm;61204;49.980;8.358;2023-12-28T03:06:09;50.81;45.83;58.52;;
72276;Laerm;61204;49.980;8.358;2023-12-28T03:08:35;49.90;44.67;63.07;;
72276;Laerm;61204;49.980;8.358;2023-12-28T03:11:03;50.68;45.32;62.50;;
72276;Laerm;61204;49.980;8.358;2023-12-28T03:13:28;51.88;47.16;60.18;;
72276;Laerm;61204;49.980;8.358;2023-12-28T03:15:54;56.80;45.57;77.06;;
72276;Laerm;61204;49.980;8.358;2023-12-28T03:18:19;57.31;45.53;80.48;;
72276;Laerm;61204;49.980;8.358;2023-12-28T03:20:45;53.80;44.24;74.54;;
72276;Laerm;61204;49.980;8.358;2023-12-28T03:23:12;52.50;42.71;68.25;;
72276;Laerm;61204;49.980;8.358;2023-12-28T03:25:40;58.31;45.37;78.85;;
72276;Laerm;61204;49.980;8.358;2023-12-28T03:28:05;56.34;43.85;76.48;;
72276;Laerm;61204;49.980;8.358;2023-12-28T03:30:31;54.57;42.83;75.33;;
72276;Laerm;61204;49.980;8.358;2023-12-28T03:32:56;58.85;44.10;74.88;;
72276;Laerm;61204;49.980;8.358;2023-12-28T03:35:24;60.84;47.39;76.77;;
72276;Laerm;61204;49.980;8.358;2023-12-28T03:37:50;64.03;45.72;89.39;;
72276;Laerm;61204;49.980;8.358;2023-12-28T03:40:16;54.09;45.10;70.60;;
72276;Laerm;61204;49.980;8.358;2023-12-28T03:42:41;59.92;44.55;81.65;;
72276;Laerm;61204;49.980;8.358;2023-12-28T03:45:08;55.14;45.61;72.24;;
72276;Laerm;61204;49.980;8.358;2023-12-28T03:47:37;61.02;48.34;79.99;;
72276;Laerm;61204;49.980;8.358;2023-12-28T03:50:03;67.82;44.67;86.98;;
72276;Laerm;61204;49.980;8.358;2023-12-28T03:52:29;66.31;46.69;87.35;;
72276;Laerm;61204;49.980;8.358;2023-12-28T03:54:55;67.71;44.76;85.53;;
72276;Laerm;61204;49.980;8.358;2023-12-28T03:57:25;71.06;46.70;91.82;;
72276;Laerm;61204;49.980;8.358;2023-12-28T03:59:51;64.87;45.38;82.21;;
72276;Laerm;61204;49.980;8.358;2023-12-28T04:02:16;66.93;46.04;88.60;;
72276;Laerm;61204;49.980;8.358;2023-12-28T04:04:44;65.66;47.86;87.30;;
72276;Laerm;61204;49.980;8.358;2023-12-28T04:07:09;62.78;47.06;83.18;;
72276;Laerm;61204;49.980;8.358;2023-12-28T04:09:37;60.55;47.68;81.42;;
72276;Laerm;61204;49.980;8.358;2023-12-28T04:12:06;58.49;46.04;81.27;;
72276;Laerm;61204;49.980;8.358;2023-12-28T04:14:32;56.24;45.46;72.10;;
72276;Laerm;61204;49.980;8.358;2023-12-28T04:17:00;55.23;46.98;75.04;;
72276;Laerm;61204;49.980;8.358;2023-12-28T04:19:27;53.50;46.59;70.75;;
72276;Laerm;61204;49.980;8.358;2023-12-28T04:21:53;54.12;47.35;70.38;;
72276;Laerm;61204;49.980;8.358;2023-12-28T04:24:21;54.13;47.29;73.58;;
72276;Laerm;61204;49.980;8.358;2023-12-28T04:26:46;57.06;47.49;73.80;;
72276;Laerm;61204;49.980;8.358;2023-12-28T04:29:12;55.42;47.98;74.89;;
72276;Laerm;61204;49.980;8.358;2023-12-28T04:31:41;53.78;47.65;70.61;;
72276;Laerm;61204;49.980;8.358;2023-12-28T04:34:11;55.66;48.18;70.87;;
72276;Laerm;61204;49.980;8.358;2023-12-28T04:36:43;52.82;47.71;67.24;;
72276;Laerm;61204;49.980;8.358;2023-12-28T04:39:10;56.36;50.12;66.47;;
72276;Laerm;61204;49.980;8.358;2023-12-28T04:41:36;55.28;50.60;63.98;;
72276;Laerm;61204;49.980;8.358;2023-12-28T04:44:01;54.47;50.14;61.22;;
72276;Laerm;61204;49.980;8.358;2023-12-28T04:46:27;55.69;51.29;66.24;;
72276;Laerm;61204;49.980;8.358;2023-12-28T04:48:52;55.24;50.28;62.32;;
72276;Laerm;61204;49.980;8.358;2023-12-28T04:51:18;55.39;49.63;62.08;;
72276;Laerm;61204;49.980;8.358;2023-12-28T04:53:43;55.96;51.84;64.69;;
72276;Laerm;61204;49.980;8.358;2023-12-28T04:56:09;56.52;50.10;62.89;;
72276;Laerm;61204;49.980;8.358;2023-12-28T04:58:36;54.45;49.55;60.15;;
72276;Laerm;61204;49.980;8.358;2023-12-28T05:01:07;54.53;49.56;61.64;;
72276;Laerm;61204;49.980;8.358;2023-12-28T05:03:32;55.40;50.39;65.47;;
72276;Laerm;61204;49.980;8.358;2023-12-28T05:05:58;57.12;50.04;73.33;;
72276;Laerm;61204;49.980;8.358;2023-12-28T05:08:23;56.29;48.20;76.83;;
72276;Laerm;61204;49.980;8.358;2023-12-28T05:10:49;61.67;50.52;82.35;;
72276;Laerm;61204;49.980;8.358;2023-12-28T05:13:14;68.09;51.35;87.40;;
72276;Laerm;61204;49.980;8.358;2023-12-28T05:15:42;61.58;49.82;80.09;;
72276;Laerm;61204;49.980;8.358;2023-12-28T05:18:08;66.89;51.26;83.11;;
72276;Laerm;61204;49.980;8.358;2023-12-28T05:20:36;69.13;51.86;92.59;;
72276;Laerm;61204;49.980;8.358;2023-12-28T05:23:02;59.17;51.79;73.64;;
72276;Laerm;61204;49.980;8.358;2023-12-28T05:25:27;58.99;51.00;76.71;;
72276;Laerm;61204;49.980;8.358;2023-12-28T05:27:53;55.92;48.33;70.54;;
72276;Laerm;61204;49.980;8.358;2023-12-28T05:30:18;63.98;51.54;88.90;;
72276;Laerm;61204;49.980;8.358;2023-12-28T05:32:44;63.93;51.21;84.90;;
72276;Laerm;61204;49.980;8.358;2023-12-28T05:35:10;60.37;50.58;76.01;;
72276;Laerm;61204;49.980;8.358;2023-12-28T05:37:35;55.45;50.54;68.55;;
72276;Laerm;61204;49.980;8.358;2023-12-28T05:40:01;57.76;52.58;74.67;;
72276;Laerm;61204;49.980;8.358;2023-12-28T05:42:27;56.87;51.28;71.10;;
72276;Laerm;61204;49.980;8.358;2023-12-28T05:44:52;61.45;51.47;88.23;;
72276;Laerm;61204;49.980;8.358;2023-12-28T05:47:18;55.85;51.14;67.18;;
72276;Laerm;61204;49.980;8.358;2023-12-28T05:49:43;56.58;50.72;64.72;;
72276;Laerm;61204;49.980;8.358;2023-12-28T05:52:09;58.66;52.24;75.18;;
72276;Laerm;61204;49.980;8.358;2023-12-28T05:54:34;57.81;50.55;74.15;;
72276;Laerm;61204;49.980;8.358;2023-12-28T05:57:00;57.28;49.63;76.69;;
72276;Laerm;61204;49.980;8.358;2023-12-28T05:59:26;57.20;49.48;76.75;;
72276;Laerm;61204;49.980;8.358;2023-12-28T06:01:51;57.02;51.74;72.15;;
72276;Laerm;61204;49.980;8.358;2023-12-28T06:04:19;58.96;52.73;78.84;;
72276;Laerm;61204;49.980;8.358;2023-12-28T06:06:45;55.79;50.12;63.46;;
72276;Laerm;61204;49.980;8.358;2023-12-28T06:09:13;58.36;53.40;73.62;;
72276;Laerm;61204;49.980;8.358;2023-12-28T06:11:38;57.54;52.35;68.10;;
72276;Laerm;61204;49.980;8.358;2023-12-28T06:14:04;57.86;51.79;73.36;;
72276;Laerm;61204;49.980;8.358;2023-12-28T06:16:29;57.78;52.00;69.13;;
72276;Laerm;61204;49.980;8.358;2023-12-28T06:18:58;58.59;52.77;73.86;;
72276;Laerm;61204;49.980;8.358;2023-12-28T06:21:23;58.00;53.58;68.99;;
72276;Laerm;61204;49.980;8.358;2023-12-28T06:23:49;58.00;53.52;69.51;;
72276;Laerm;61204;49.980;8.358;2023-12-28T06:26:16;58.07;53.22;68.94;;
72276;Laerm;61204;49.980;8.358;2023-12-28T06:28:42;57.68;51.92;69.66;;
72276;Laerm;61204;49.980;8.358;2023-12-28T06:31:08;59.12;54.73;67.35;;
72276;Laerm;61204;49.980;8.358;2023-12-28T06:33:33;58.85;54.37;70.79;;
72276;Laerm;61204;49.980;8.358;2023-12-28T06:36:06;58.50;54.55;73.47;;
72276;Laerm;61204;49.980;8.358;2023-12-28T06:38:31;58.45;52.76;74.13;;
72276;Laerm;61204;49.980;8.358;2023-12-28T06:40:58;58.34;53.47;69.07;;
72276;Laerm;61204;49.980;8.358;2023-12-28T06:43:24;60.11;54.73;72.49;;
72276;Laerm;61204;49.980;8.358;2023-12-28T06:45:49;59.17;55.03;68.74;;
72276;Laerm;61204;49.980;8.358;2023-12-28T06:48:17;57.91;53.88;67.17;;
72276;Laerm;61204;49.980;8.358;2023-12-28T06:50:42;59.09;53.97;68.48;;
72276;Laerm;61204;49.980;8.358;2023-12-28T06:53:08;60.36;54.31;76.91;;
72276;Laerm;61204;49.980;8.358;2023-12-28T06:55:33;59.55;52.93;79.52;;
72276;Laerm;61204;49.980;8.358;2023-12-28T06:58:00;57.97;52.80;73.41;;
72276;Laerm;61204;49.980;8.358;2023-12-28T07:00:25;56.58;51.99;62.95;;
72276;Laerm;61204;49.980;8.358;2023-12-28T07:02:51;60.44;52.90;82.43;;
72276;Laerm;61204;49.980;8.358;2023-12-28T07:05:17;58.01;52.79;74.64;;
72276;Laerm;61204;49.980;8.358;2023-12-28T07:07:42;61.73;55.02;79.60;;
72276;Laerm;61204;49.980;8.358;2023-12-28T07:10:08;59.12;52.36;77.37;;
72276;Laerm;61204;49.980;8.358;2023-12-28T07:12:34;61.62;54.29;80.91;;
72276;Laerm;61204;49.980;8.358;2023-12-28T07:14:59;59.36;53.57;77.08;;
72276;Laerm;61204;49.980;8.358;2023-12-28T07:17:25;60.16;53.57;76.87;;
72276;Laerm;61204;49.980;8.358;2023-12-28T07:19:50;60.13;52.49;78.21;;
72276;Laerm;61204;49.980;8.358;2023-12-28T07:22:16;60.33;54.07;79.19;;
72276;Laerm;61204;49.980;8.358;2023-12-28T07:24:41;60.82;53.55;77.36;;
72276;Laerm;61204;49.980;8.358;2023-12-28T07:27:10;57.51;51.84;66.66;;
72276;Laerm;61204;49.980;8.358;2023-12-28T07:29:39;60.39;56.01;75.38;;
72276;Laerm;61204;49.980;8.358;2023-12-28T07:32:04;59.31;53.68;72.40;;
72276;Laerm;61204;49.980;8.358;2023-12-28T07:34:30;62.55;54.59;83.22;;
72276;Laerm;61204;49.980;8.358;2023-12-28T07:36:55;60.94;54.75;77.38;;
72276;Laerm;61204;49.980;8.358;2023-12-28T07:39:21;59.75;54.58;77.57;;
72276;Laerm;61204;49.980;8.358;2023-12-28T07:41:46;58.69;54.16;70.09;;
72276;Laerm;61204;49.980;8.358;2023-12-28T07:44:12;60.26;53.98;79.48;;
72276;Laerm;61204;49.980;8.358;2023-12-28T07:46:37;59.95;53.42;84.78;;
72276;Laerm;61204;49.980;8.358;2023-12-28T07:49:03;60.41;54.33;76.41;;
72276;Laerm;61204;49.980;8.358;2023-12-28T07:51:31;58.02;52.83;69.91;;
72276;Laerm;61204;49.980;8.358;2023-12-28T07:53:56;58.49;52.81;69.47;;
72276;Laerm;61204;49.980;8.358;2023-12-28T07:56:22;58.48;54.65;67.95;;
72276;Laerm;61204;49.980;8.358;2023-12-28T07:58:47;57.80;53.21;73.72;;
72276;Laerm;61204;49.980;8.358;2023-12-28T08:01:13;59.84;55.18;76.45;;
72276;Laerm;61204;49.980;8.358;2023-12-28T08:03:38;57.63;53.54;67.18;;
72276;Laerm;61204;49.980;8.358;2023-12-28T08:06:07;57.58;52.44;69.05;;
72276;Laerm;61204;49.980;8.358;2023-12-28T08:08:38;59.09;54.38;67.02;;
72276;Laerm;61204;49.980;8.358;2023-12-28T08:11:03;59.19;55.99;66.41;;
72276;Laerm;61204;49.980;8.358;2023-12-28T08:13:29;59.25;53.39;75.56;;
72276;Laerm;61204;49.980;8.358;2023-12-28T08:15:54;60.20;55.66;74.70;;
72276;Laerm;61204;49.980;8.358;2023-12-28T08:18:20;59.02;53.80;72.15;;
72276;Laerm;61204;49.980;8.358;2023-12-28T08:20:46;59.77;54.73;74.50;;
72276;Laerm;61204;49.980;8.358;2023-12-28T08:23:14;59.90;55.17;73.94;;
72276;Laerm;61204;49.980;8.358;2023-12-28T08:25:39;59.75;54.27;76.28;;
72276;Laerm;61204;49.980;8.358;2023-12-28T08:28:05;59.53;54.72;69.02;;
72276;Laerm;61204;49.980;8.358;2023-12-28T08:30:30;59.26;54.18;75.67;;
72276;Laerm;61204;49.980;8.358;2023-12-28T08:32:56;59.58;54.19;76.85;;
72276;Laerm;61204;49.980;8.358;2023-12-28T08:35:22;59.54;55.06;74.37;;
72276;Laerm;61204;49.980;8.358;2023-12-28T08:37:47;60.21;55.08;76.52;;
72276;Laerm;61204;49.980;8.358;2023-12-28T08:40:13;60.02;55.45;72.48;;
72276;Laerm;61204;49.980;8.358;2023-12-28T08:42:41;60.46;55.94;76.96;;
72276;Laerm;61204;49.980;8.358;2023-12-28T08:45:09;60.57;54.95;75.58;;
72276;Laerm;61204;49.980;8.358;2023-12-28T08:47:35;60.25;54.53;70.65;;
72276;Laerm;61204;49.980;8.358;2023-12-28T08:50:00;59.63;54.71;76.56;;
72276;Laerm;61204;49.980;8.358;2023-12-28T08:52:26;59.07;54.02;73.17;;
72276;Laerm;61204;49.980;8.358;2023-12-28T08:54:52;58.48;54.59;66.67;;
72276;Laerm;61204;49.980;8.358;2023-12-28T08:57:17;58.34;53.34;70.85;;
72276;Laerm;61204;49.980;8.358;2023-12-28T08:59:43;58.63;54.84;63.53;;
72276;Laerm;61204;49.980;8.358;2023-12-28T09:02:08;58.89;54.43;66.39;;
72276;Laerm;61204;49.980;8.358;2023-12-28T09:04:34;58.96;54.01;68.02;;
72276;Laerm;61204;49.980;8.358;2023-12-28T09:06:59;60.29;54.84;77.09;;
72276;Laerm;61204;49.980;8.358;2023-12-28T09:09:27;59.78;55.47;73.14;;
72276;Laerm;61204;49.980;8.358;2023-12-28T09:11:53;60.17;55.26;77.74;;
72276;Laerm;61204;49.980;8.358;2023-12-28T09:14:19;60.14;54.44;75.02;;
72276;Laerm;61204;49.980;8.358;2023-12-28T09:16:47;59.56;55.20;74.87;;
72276;Laerm;61204;49.980;8.358;2023-12-28T09:19:13;59.05;54.92;76.58;;
72276;Laerm;61204;49.980;8.358;2023-12-28T09:21:39;58.93;54.09;74.64;;
72276;Laerm;61204;49.980;8.358;2023-12-28T09:24:06;59.52;54.74;71.81;;
72276;Laerm;61204;49.980;8.358;2023-12-28T09:26:33;64.88;54.32;85.28;;
72276;Laerm;61204;49.980;8.358;2023-12-28T09:28:59;60.48;52.89;81.95;;
72276;Laerm;61204;49.980;8.358;2023-12-28T09:31:25;59.56;53.79;77.73;;
72276;Laerm;61204;49.980;8.358;2023-12-28T09:33:53;60.24;53.21;78.90;;
72276;Laerm;61204;49.980;8.358;2023-12-28T09:36:18;60.16;54.14;76.18;;
72276;Laerm;61204;49.980;8.358;2023-12-28T09:38:44;57.98;53.30;71.65;;
72276;Laerm;61204;49.980;8.358;2023-12-28T09:41:14;58.27;53.05;70.30;;
72276;Laerm;61204;49.980;8.358;2023-12-28T09:43:58;60.85;54.62;82.29;;
72276;Laerm;61204;49.980;8.358;2023-12-28T09:46:26;59.51;54.52;80.14;;
72276;Laerm;61204;49.980;8.358;2023-12-28T09:48:54;57.64;52.86;73.47;;
72276;Laerm;61204;49.980;8.358;2023-12-28T09:51:22;59.64;53.60;76.66;;
72276;Laerm;61204;49.980;8.358;2023-12-28T09:53:47;61.24;53.20;85.92;;
72276;Laerm;61204;49.980;8.358;2023-12-28T09:56:13;58.42;53.64;72.76;;
72276;Laerm;61204;49.980;8.358;2023-12-28T09:58:46;58.51;53.88;67.45;;
72276;Laerm;61204;49.980;8.358;2023-12-28T10:01:14;58.52;53.35;70.27;;
72276;Laerm;61204;49.980;8.358;2023-12-28T10:03:40;59.88;54.17;77.07;;
72276;Laerm;61204;49.980;8.358;2023-12-28T10:06:06;59.39;52.59;78.70;;
72276;Laerm;61204;49.980;8.358;2023-12-28T10:08:32;58.06;52.38;72.48;;
72276;Laerm;61204;49.980;8.358;2023-12-28T10:10:57;58.63;53.76;72.25;;
72276;Laerm;61204;49.980;8.358;2023-12-28T10:13:27;58.61;52.62;73.48;;
72276;Laerm;61204;49.980;8.358;2023-12-28T10:15:57;58.78;51.95;77.03;;
72276;Laerm;61204;49.980;8.358;2023-12-28T10:18:23;62.84;54.37;80.80;;
72276;Laerm;61204;49.980;8.358;2023-12-28T10:20:53;61.61;53.77;83.63;;
72276;Laerm;61204;49.980;8.358;2023-12-28T10:23:20;60.02;51.65;79.64;;
72276;Laerm;61204;49.980;8.358;2023-12-28T10:25:55;68.55;52.59;87.58;;
72276;Laerm;61204;49.980;8.358;2023-12-28T10:28:21;58.86;50.58;80.03;;
72276;Laerm;61204;49.980;8.358;2023-12-28T10:30:54;57.49;50.30;77.14;;
72276;Laerm;61204;49.980;8.358;2023-12-28T10:33:19;65.72;53.46;87.90;;
72276;Laerm;61204;49.980;8.358;2023-12-28T10:35:45;66.80;52.43;87.76;;
72276;Laerm;61204;49.980;8.358;2023-12-28T10:38:16;67.96;53.91;83.69;;
72276;Laerm;61204;49.980;8.358;2023-12-28T10:40:44;59.72;53.94;76.27;;
72276;Laerm;61204;49.980;8.358;2023-12-28T10:43:16;70.21;51.91;90.34;;
72276;Laerm;61204;49.980;8.358;2023-12-28T10:45:47;60.87;53.68;83.23;;
72276;Laerm;61204;49.980;8.358;2023-12-28T10:48:28;65.59;51.47;85.46;;
72276;Laerm;61204;49.980;8.358;2023-12-28T10:50:59;65.89;52.82;84.51;;
72276;Laerm;61204;49.980;8.358;2023-12-28T11:00:12;68.52;51.44;87.05;;
72276;Laerm;61204;49.980;8.358;2023-12-28T11:02:45;69.67;53.39;89.80;;
72276;Laerm;61204;49.980;8.358;2023-12-28T11:05:20;64.73;51.10;86.93;;
72276;Laerm;61204;49.980;8.358;2023-12-28T11:07:48;73.02;52.30;95.57;;
72276;Laerm;61204;49.980;8.358;2023-12-28T11:10:18;71.69;52.36;88.33;;
72276;Laerm;61204;49.980;8.358;2023-12-28T11:12:46;67.74;51.49;88.57;;
72276;Laerm;61204;49.980;8.358;2023-12-28T11:15:14;63.87;51.83;82.26;;
72276;Laerm;61204;49.980;8.358;2023-12-28T11:17:43;67.88;52.67;89.09;;
72276;Laerm;61204;49.980;8.358;2023-12-28T11:20:12;66.60;52.65;86.56;;
72276;Laerm;61204;49.980;8.358;2023-12-28T11:22:40;69.05;51.56;92.48;;
72276;Laerm;61204;49.980;8.358;2023-12-28T11:25:18;56.18;49.80;76.02;;
72276;Laerm;61204;49.980;8.358;2023-12-28T11:27:45;67.93;51.14;85.79;;
72276;Laerm;61204;49.980;8.358;2023-12-28T11:30:12;65.71;51.74;84.32;;
72276;Laerm;61204;49.980;8.358;2023-12-28T11:32:42;64.12;50.91;86.53;;
72276;Laerm;61204;49.980;8.358;2023-12-28T11:35:14;61.69;50.58;82.45;;
72276;Laerm;61204;49.980;8.358;2023-12-28T11:37:51;58.59;52.19;76.87;;
72276;Laerm;61204;49.980;8.358;2023-12-28T11:40:19;62.73;52.24;83.37;;
72276;Laerm;61204;49.980;8.358;2023-12-28T11:43:03;60.73;50.97;77.89;;
72276;Laerm;61204;49.980;8.358;2023-12-28T11:45:30;64.19;51.17;84.71;;
72276;Laerm;61204;49.980;8.358;2023-12-28T11:48:01;65.62;51.27;84.63;;
72276;Laerm;61204;49.980;8.358;2023-12-28T11:50:27;63.61;51.89;85.63;;
72276;Laerm;61204;49.980;8.358;2023-12-28T11:52:52;65.16;50.17;84.98;;
72276;Laerm;61204;49.980;8.358;2023-12-28T11:55:22;63.26;51.55;84.05;;
72276;Laerm;61204;49.980;8.358;2023-12-28T11:57:49;64.63;51.59;86.16;;
72276;Laerm;61204;49.980;8.358;2023-12-28T12:00:15;58.57;52.20;74.99;;
72276;Laerm;61204;49.980;8.358;2023-12-28T12:02:44;63.24;51.26;82.33;;
72276;Laerm;61204;49.980;8.358;2023-12-28T12:05:15;63.98;52.11;83.94;;
72276;Laerm;61204;49.980;8.358;2023-12-28T12:07:43;62.73;51.60;81.89;;
72276;Laerm;61204;49.980;8.358;2023-12-28T12:10:15;60.20;52.65;77.28;;
72276;Laerm;61204;49.980;8.358;2023-12-28T12:12:41;61.14;52.36;79.09;;
72276;Laerm;61204;49.980;8.358;2023-12-28T12:15:08;61.57;53.22;85.39;;
72276;Laerm;61204;49.980;8.358;2023-12-28T12:17:34;63.42;53.45;86.39;;
72276;Laerm;61204;49.980;8.358;2023-12-28T12:20:00;61.11;52.54;78.02;;
72276;Laerm;61204;49.980;8.358;2023-12-28T12:22:31;61.11;50.75;80.50;;
72276;Laerm;61204;49.980;8.358;2023-12-28T12:25:02;61.46;52.22;80.57;;
72276;Laerm;61204;49.980;8.358;2023-12-28T12:27:32;58.21;53.58;75.01;;
72276;Laerm;61204;49.980;8.358;2023-12-28T12:29:57;60.80;52.38;81.41;;
72276;Laerm;61204;49.980;8.358;2023-12-28T12:32:27;62.52;53.62;82.51;;
72276;Laerm;61204;49.980;8.358;2023-12-28T12:34:53;63.97;52.98;86.17;;
72276;Laerm;61204;49.980;8.358;2023-12-28T12:37:21;61.09;53.33;81.17;;
72276;Laerm;61204;49.980;8.358;2023-12-28T12:39:46;57.86;51.67;76.90;;
72276;Laerm;61204;49.980;8.358;2023-12-28T12:42:16;59.75;52.87;79.84;;
72276;Laerm;61204;49.980;8.358;2023-12-28T12:44:45;60.33;52.64;79.90;;
72276;Laerm;61204;49.980;8.358;2023-12-28T12:47:13;58.07;52.94;76.57;;
72276;Laerm;61204;49.980;8.358;2023-12-28T12:49:38;62.24;52.72;82.75;;
72276;Laerm;61204;49.980;8.358;2023-12-28T12:52:07;60.53;54.06;79.16;;
72276;Laerm;61204;49.980;8.358;2023-12-28T12:54:32;65.10;53.37;86.30;;
72276;Laerm;61204;49.980;8.358;2023-12-28T12:56:58;64.00;53.19;94.53;;
72276;Laerm;61204;49.980;8.358;2023-12-28T12:59:24;64.10;54.83;87.78;;
72276;Laerm;61204;49.980;8.358;2023-12-28T13:01:51;61.08;54.36;78.40;;
72276;Laerm;61204;49.980;8.358;2023-12-28T13:04:18;62.23;53.73;84.24;;
72276;Laerm;61204;49.980;8.358;2023-12-28T13:06:44;58.68;52.29;69.23;;
72276;Laerm;61204;49.980;8.358;2023-12-28T13:09:10;63.93;55.78;85.10;;
72276;Laerm;61204;49.980;8.358;2023-12-28T13:11:37;59.79;54.43;75.94;;
72276;Laerm;61204;49.980;8.358;2023-12-28T13:14:03;60.10;53.65;77.64;;
72276;Laerm;61204;49.980;8.358;2023-12-28T13:16:29;62.00;55.28;79.02;;
72276;Laerm;61204;49.980;8.358;2023-12-28T13:18:55;63.39;53.35;82.91;;
72276;Laerm;61204;49.980;8.358;2023-12-28T13:21:21;62.54;53.68;86.71;;
72276;Laerm;61204;49.980;8.358;2023-12-28T13:23:47;59.23;53.86;75.89;;
72276;Laerm;61204;49.980;8.358;2023-12-28T13:26:14;59.47;53.69;76.90;;
72276;Laerm;61204;49.980;8.358;2023-12-28T13:28:40;59.12;54.26;72.33;;
72276;Laerm;61204;49.980;8.358;2023-12-28T13:31:08;59.28;53.07;76.12;;
72276;Laerm;61204;49.980;8.358;2023-12-28T13:33:34;57.74;53.50;64.67;;
72276;Laerm;61204;49.980;8.358;2023-12-28T13:35:59;60.74;54.51;77.65;;
72276;Laerm;61204;49.980;8.358;2023-12-28T13:38:28;61.22;54.14;75.73;;
72276;Laerm;61204;49.980;8.358;2023-12-28T13:40:53;58.00;52.86;71.69;;
72276;Laerm;61204;49.980;8.358;2023-12-28T13:43:19;59.30;53.26;77.63;;
72276;Laerm;61204;49.980;8.358;2023-12-28T13:45:45;59.22;54.41;70.81;;
72276;Laerm;61204;49.980;8.358;2023-12-28T13:48:10;62.21;54.24;80.66;;
72276;Laerm;61204;49.980;8.358;2023-12-28T13:50:36;61.57;55.60;76.29;;